createdAt,value
2018-11-07T00:00:53.561Z,25.72
2018-11-07T00:03:22.451Z,26.80
2018-11-07T00:05:52.050Z,26.70
2018-11-07T00:08:21.442Z,27.55
2018-11-07T00:10:50.287Z,26.80
2018-11-07T00:13:20.156Z,27.87
2018-11-07T00:15:48.829Z,26.35
2018-11-07T00:18:17.516Z,27.15
2018-11-07T00:20:46.278Z,27.75
2018-11-07T00:23:14.943Z,26.60
2018-11-07T00:25:43.990Z,25.08
2018-11-07T00:28:12.955Z,26.25
2018-11-07T00:30:41.598Z,26.27
2018-11-07T00:33:10.182Z,27.93
2018-11-07T00:35:38.908Z,26.05
2018-11-07T00:38:07.919Z,24.90
2018-11-07T00:40:36.582Z,26.37
2018-11-07T00:43:05.595Z,27.40
2018-11-07T00:45:45.115Z,27.00
2018-11-07T00:48:14.226Z,27.30
2018-11-07T00:50:42.906Z,26.27
2018-11-07T00:53:11.739Z,27.42
2018-11-07T00:55:40.405Z,26.17
2018-11-07T00:58:09.003Z,29.45
2018-11-07T01:00:37.831Z,28.23
2018-11-07T01:03:06.867Z,28.38
2018-11-07T01:05:35.597Z,27.62
2018-11-07T01:08:04.901Z,27.42
2018-11-07T01:10:33.518Z,28.85
2018-11-07T01:13:02.481Z,27.10
2018-11-07T01:15:31.064Z,28.62
2018-11-07T01:18:00.464Z,29.20
2018-11-07T01:20:29.995Z,28.35
2018-11-07T01:22:58.593Z,29.92
2018-11-07T01:25:27.238Z,29.57
2018-11-07T01:27:56.405Z,29.32
2018-11-07T01:30:24.985Z,29.98
2018-11-07T01:32:53.987Z,29.18
2018-11-07T01:35:23.125Z,30.02
2018-11-07T01:37:52.112Z,29.35
2018-11-07T01:40:21.065Z,31.27
2018-11-07T01:42:49.701Z,30.37
2018-11-07T01:45:19.400Z,31.52
2018-11-07T01:47:48.111Z,31.02
2018-11-07T01:50:16.730Z,30.23
2018-11-07T01:52:45.739Z,29.35
2018-11-07T01:55:14.780Z,29.70
2018-11-07T01:57:43.416Z,31.55
2018-11-07T02:00:12.658Z,29.05
2018-11-07T02:02:42.805Z,30.40
2018-11-07T02:05:11.567Z,32.88
2018-11-07T02:07:41.902Z,33.20
2018-11-07T02:10:11.147Z,32.63
2018-11-07T02:12:45.971Z,30.50
2018-11-07T02:15:15.235Z,34.10
2018-11-07T02:17:44.341Z,33.13
2018-11-07T02:23:28.511Z,32.35
2018-11-07T02:25:57.419Z,31.62
2018-11-07T02:28:25.999Z,35.33
2018-11-07T02:30:54.652Z,31.55
2018-11-07T02:33:23.279Z,32.85
2018-11-07T02:35:51.861Z,31.70
2018-11-07T02:38:20.815Z,33.08
2018-11-07T02:40:49.801Z,30.48
2018-11-07T02:43:18.436Z,33.53
2018-11-07T02:45:47.011Z,32.23
2018-11-07T02:48:15.800Z,33.38
2018-11-07T02:50:44.708Z,33.63
2018-11-07T02:53:13.373Z,32.45
2018-11-07T02:55:42.210Z,34.63
2018-11-07T02:58:11.360Z,33.98
2018-11-07T03:00:40.053Z,34.85
2018-11-07T03:03:08.722Z,32.98
2018-11-07T03:05:37.360Z,32.00
2018-11-07T03:08:06.979Z,35.33
2018-11-07T03:10:36.957Z,34.80
2018-11-07T03:13:06.035Z,33.65
2018-11-07T03:15:35.753Z,33.53
2018-11-07T03:18:04.926Z,35.45
2018-11-07T03:20:33.664Z,36.00
2018-11-07T03:23:02.610Z,36.10
2018-11-07T03:25:31.202Z,32.95
2018-11-07T03:27:59.849Z,36.42
2018-11-07T03:30:28.766Z,34.98
2018-11-07T03:32:57.336Z,36.25
2018-11-07T03:35:27.567Z,35.05
2018-11-07T03:37:56.935Z,34.65
2018-11-07T03:40:26.064Z,38.40
2018-11-07T03:42:54.801Z,37.30
2018-11-07T03:45:28.897Z,36.53
2018-11-07T03:47:57.870Z,35.43
2018-11-07T03:50:26.608Z,34.83
2018-11-07T03:52:56.076Z,34.38
2018-11-07T03:55:24.833Z,35.88
2018-11-07T03:57:53.690Z,35.10
2018-11-07T04:00:22.512Z,34.50
2018-11-07T04:02:51.570Z,34.92
2018-11-07T04:05:20.186Z,33.48
2018-11-07T04:07:49.310Z,34.63
2018-11-07T04:10:17.993Z,33.83
2018-11-07T04:12:46.699Z,36.20
2018-11-07T04:15:15.378Z,34.45
2018-11-07T04:17:44.024Z,33.85
2018-11-07T04:20:12.666Z,33.95
2018-11-07T04:22:41.344Z,34.38
2018-11-07T04:25:10.571Z,34.63
2018-11-07T04:27:39.677Z,34.92
2018-11-07T04:30:10.386Z,36.70
2018-11-07T04:32:39.844Z,34.27
2018-11-07T04:35:09.668Z,34.67
2018-11-07T04:37:38.467Z,36.83
2018-11-07T04:40:08.922Z,35.05
2018-11-07T04:42:37.590Z,35.80
2018-11-07T04:45:07.126Z,35.83
2018-11-07T04:47:35.820Z,36.40
2018-11-07T04:50:05.691Z,34.73
2018-11-07T04:52:34.627Z,36.30
2018-11-07T04:55:03.545Z,37.40
2018-11-07T04:57:32.137Z,34.23
2018-11-07T05:00:00.777Z,34.00
2018-11-07T05:02:30.255Z,34.48
2018-11-07T05:04:58.866Z,35.15
2018-11-07T05:07:27.497Z,39.08
2018-11-07T05:09:56.252Z,33.78
2018-11-07T05:12:25.486Z,36.95
2018-11-07T05:14:54.052Z,36.80
2018-11-07T05:17:22.594Z,35.90
2018-11-07T05:19:51.591Z,36.63
2018-11-07T05:22:20.656Z,36.53
2018-11-07T05:24:53.835Z,35.30
2018-11-07T05:27:23.072Z,35.05
2018-11-07T05:29:52.156Z,35.90
2018-11-07T05:32:28.286Z,35.45
2018-11-07T05:34:56.863Z,38.33
2018-11-07T05:37:26.416Z,35.90
2018-11-07T05:39:55.002Z,36.83
2018-11-07T05:42:23.890Z,37.25
2018-11-07T05:44:53.326Z,35.95
2018-11-07T05:47:22.196Z,37.38
2018-11-07T05:49:50.878Z,38.80
2018-11-07T05:52:21.553Z,35.58
2018-11-07T05:54:50.138Z,36.70
2018-11-07T05:57:18.669Z,36.40
2018-11-07T06:06:45.536Z,46.90
2018-11-07T06:09:14.408Z,41.63
2018-11-07T06:11:43.332Z,37.60
2018-11-07T06:27:51.392Z,37.33
2018-11-07T06:30:41.365Z,40.70
2018-11-07T06:33:15.809Z,37.70
2018-11-07T06:35:44.953Z,38.30
2018-11-07T06:38:14.563Z,40.23
2018-11-07T06:40:43.141Z,41.98
2018-11-07T06:43:12.019Z,41.88
2018-11-07T06:45:40.515Z,39.63
2018-11-07T06:48:09.786Z,41.48
2018-11-07T06:50:44.926Z,39.88
2018-11-07T06:53:13.478Z,39.60
2018-11-07T06:55:42.039Z,39.63
2018-11-07T06:58:11.114Z,38.13
2018-11-07T07:00:40.021Z,42.75
2018-11-07T07:03:15.844Z,41.90
2018-11-07T07:05:44.395Z,38.05
2018-11-07T07:08:13.806Z,40.25
2018-11-07T07:10:44.669Z,41.98
2018-11-07T07:13:16.245Z,41.10
2018-11-07T07:15:45.200Z,41.02
2018-11-07T07:18:25.024Z,41.90
2018-11-07T07:20:54.273Z,48.52
2018-11-07T07:23:23.650Z,40.75
2018-11-07T07:25:54.692Z,40.28
2018-11-07T07:28:25.759Z,40.85
2018-11-07T07:30:55.492Z,39.53
2018-11-07T07:33:31.642Z,39.60
2018-11-07T07:36:00.979Z,39.95
2018-11-07T07:38:30.042Z,39.55
2018-11-07T07:41:00.292Z,39.50
2018-11-07T07:43:34.928Z,40.28
2018-11-07T07:46:03.658Z,40.58
2018-11-07T07:48:33.872Z,40.58
2018-11-07T07:51:03.250Z,42.08
2018-11-07T07:53:32.746Z,38.10
2018-11-07T07:56:02.654Z,41.58
2018-11-07T07:58:31.799Z,41.20
2018-11-07T08:01:00.946Z,39.90
2018-11-07T08:03:29.680Z,38.98
2018-11-07T08:05:59.560Z,40.28
2018-11-07T08:08:29.638Z,38.33
2018-11-07T08:10:58.602Z,39.00
2018-11-07T08:13:29.216Z,39.00
2018-11-07T08:15:59.456Z,38.50
2018-11-07T08:18:29.231Z,35.48
2018-11-07T08:21:02.432Z,38.13
2018-11-07T08:23:33.226Z,35.68
2018-11-07T08:26:01.970Z,36.35
2018-11-07T08:28:35.432Z,38.30
2018-11-07T08:31:04.540Z,38.45
2018-11-07T08:33:33.461Z,51.33
2018-11-07T08:36:02.237Z,39.18
2018-11-07T08:38:31.793Z,35.43
2018-11-07T08:41:01.868Z,38.53
2018-11-07T08:43:32.076Z,38.45
2018-11-07T08:46:01.619Z,38.00
2018-11-07T08:48:32.160Z,35.85
2018-11-07T08:51:01.632Z,34.20
2018-11-07T08:53:30.776Z,34.05
2018-11-07T08:56:00.044Z,38.90
2018-11-07T08:58:28.811Z,37.83
2018-11-07T09:00:58.977Z,36.38
2018-11-07T09:03:28.002Z,39.30
2018-11-07T09:05:57.302Z,36.65
2018-11-07T09:08:26.876Z,35.38
2018-11-07T09:10:55.590Z,34.73
2018-11-07T09:13:25.370Z,37.63
2018-11-07T09:15:54.120Z,37.33
2018-11-07T09:18:24.158Z,34.85
2018-11-07T09:20:53.848Z,37.90
2018-11-07T09:23:23.467Z,36.80
2018-11-07T09:25:53.122Z,36.63
2018-11-07T09:28:21.814Z,36.08
2018-11-07T09:30:50.562Z,36.58
2018-11-07T09:33:22.805Z,37.28
2018-11-07T09:35:52.394Z,37.25
2018-11-07T09:38:22.012Z,37.13
2018-11-07T09:40:52.074Z,34.53
2018-11-07T09:43:20.836Z,33.95
2018-11-07T09:45:49.908Z,34.40
2018-11-07T09:48:19.511Z,36.90
2018-11-07T09:50:49.141Z,35.03
2018-11-07T09:53:18.111Z,35.10
2018-11-07T09:55:47.308Z,35.60
2018-11-07T09:58:16.458Z,34.60
2018-11-07T10:00:45.907Z,36.10
2018-11-07T10:03:14.607Z,34.58
2018-11-07T10:05:43.847Z,37.25
2018-11-07T10:08:12.828Z,33.15
2018-11-07T10:10:42.482Z,34.63
2018-11-07T10:13:12.680Z,33.85
2018-11-07T10:15:41.645Z,34.98
2018-11-07T10:18:10.670Z,36.90
2018-11-07T10:20:39.369Z,35.08
2018-11-07T10:23:08.361Z,35.13
2018-11-07T10:25:37.233Z,34.90
2018-11-07T10:28:07.097Z,34.67
2018-11-07T10:30:35.802Z,36.30
2018-11-07T10:33:05.327Z,35.88
2018-11-07T10:35:33.976Z,35.03
2018-11-07T10:38:04.326Z,34.10
2018-11-07T10:40:33.665Z,34.23
2018-11-07T10:43:02.801Z,34.90
2018-11-07T10:45:32.253Z,33.73
2018-11-07T10:48:01.332Z,35.20
2018-11-07T10:50:31.159Z,32.17
2018-11-07T10:53:00.679Z,32.95
2018-11-07T10:55:30.576Z,35.85
2018-11-07T10:58:01.728Z,34.40
2018-11-07T11:00:36.251Z,35.35
2018-11-07T11:03:11.470Z,34.48
2018-11-07T11:05:40.822Z,33.45
2018-11-07T11:08:10.603Z,34.03
2018-11-07T11:10:40.045Z,35.28
2018-11-07T11:13:08.987Z,34.53
2018-11-07T11:15:37.620Z,34.95
2018-11-07T11:18:06.327Z,34.63
2018-11-07T11:20:35.850Z,33.15
2018-11-07T11:23:05.792Z,33.50
2018-11-07T11:25:36.120Z,31.97
2018-11-07T11:28:05.571Z,35.98
2018-11-07T11:30:34.339Z,32.75
2018-11-07T11:33:04.082Z,33.15
2018-11-07T11:35:32.814Z,31.97
2018-11-07T11:38:02.667Z,33.45
2018-11-07T11:40:31.421Z,34.65
2018-11-07T11:43:00.583Z,33.40
2018-11-07T11:45:29.578Z,30.90
2018-11-07T11:47:58.269Z,34.20
2018-11-07T11:50:28.636Z,34.78
2018-11-07T11:53:02.607Z,33.73
2018-11-07T11:55:31.248Z,36.20
2018-11-07T11:58:03.133Z,33.90
2018-11-07T12:00:32.864Z,33.08
2018-11-07T12:03:02.439Z,32.58
2018-11-07T12:05:31.659Z,31.07
2018-11-07T12:08:01.481Z,34.43
2018-11-07T12:10:32.054Z,32.75
2018-11-07T12:13:02.365Z,32.88
2018-11-07T12:15:31.283Z,30.70
2018-11-07T12:18:02.827Z,32.13
2018-11-07T12:20:31.715Z,31.12
2018-11-07T12:23:00.629Z,32.03
2018-11-07T12:25:29.684Z,34.20
2018-11-07T12:27:58.438Z,31.80
2018-11-07T12:30:27.184Z,33.18
2018-11-07T12:32:56.022Z,33.53
2018-11-07T12:35:25.018Z,33.65
2018-11-07T12:37:53.705Z,33.00
2018-11-07T12:40:22.364Z,35.63
2018-11-07T12:42:54.461Z,32.40
2018-11-07T12:45:26.628Z,33.18
2018-11-07T12:47:58.419Z,33.53
2018-11-07T12:50:28.401Z,39.73
2018-11-07T12:52:58.257Z,33.75
2018-11-07T12:55:29.191Z,33.55
2018-11-07T12:58:00.471Z,33.58
2018-11-07T13:00:35.507Z,31.45
2018-11-07T13:03:05.869Z,32.48
2018-11-07T13:05:40.958Z,32.05
2018-11-07T13:08:15.933Z,33.48
2018-11-07T13:10:58.212Z,33.73
2018-11-07T13:13:28.166Z,31.35
2018-11-07T13:15:58.135Z,33.15
2018-11-07T13:18:27.534Z,32.73
2018-11-07T13:20:56.710Z,32.58
2018-11-07T13:23:25.358Z,32.93
2018-11-07T13:25:54.347Z,31.87
2018-11-07T13:28:23.404Z,32.90
2018-11-07T13:30:52.771Z,33.40
2018-11-07T13:33:22.726Z,33.25
2018-11-07T13:35:51.359Z,32.90
2018-11-07T13:38:20.525Z,30.77
2018-11-07T13:40:49.202Z,32.10
2018-11-07T13:43:18.317Z,39.13
2018-11-07T13:45:48.145Z,37.30
2018-11-07T13:48:17.752Z,33.58
2018-11-07T13:50:46.766Z,33.42
2018-11-07T13:53:15.809Z,33.67
2018-11-07T13:55:45.434Z,33.10
2018-11-07T13:58:14.452Z,34.27
2018-11-07T14:00:46.716Z,35.23
2018-11-07T14:03:16.202Z,35.35
2018-11-07T14:05:45.328Z,35.63
2018-11-07T14:08:14.709Z,38.60
2018-11-07T14:10:43.486Z,40.08
2018-11-07T14:13:14.535Z,41.20
2018-11-07T14:15:45.718Z,36.93
2018-11-07T14:18:15.962Z,38.45
2018-11-07T14:20:44.642Z,44.18
2018-11-07T14:23:13.633Z,40.85
2018-11-07T14:25:43.556Z,44.70
2018-11-07T14:28:12.389Z,47.55
2018-11-07T14:30:41.606Z,50.50
2018-11-07T14:33:10.288Z,48.60
2018-11-07T14:35:40.777Z,49.33
2018-11-07T14:38:10.444Z,47.93
2018-11-07T14:40:39.088Z,50.40
2018-11-07T14:43:09.130Z,51.33
2018-11-07T14:45:39.284Z,50.88
2018-11-07T14:48:07.983Z,49.00
2018-11-07T14:50:50.600Z,51.85
2018-11-07T14:53:19.947Z,47.90
2018-11-07T14:55:48.926Z,52.00
2018-11-07T14:58:22.954Z,52.70
2018-11-07T15:00:52.185Z,51.13
2018-11-07T15:03:21.677Z,54.05
2018-11-07T15:05:50.688Z,52.33
2018-11-07T15:08:36.164Z,61.18
2018-11-07T15:14:13.655Z,51.55
2018-11-07T15:16:44.570Z,50.35
2018-11-07T15:19:15.559Z,53.60
2018-11-07T15:21:56.953Z,48.65
2018-11-07T15:24:28.902Z,49.38
2018-11-07T15:27:26.067Z,47.15
2018-11-07T15:30:01.248Z,50.38
2018-11-07T15:32:33.682Z,47.45
2018-11-07T15:35:04.842Z,49.95
2018-11-07T15:37:36.179Z,49.48
2018-11-07T15:40:08.836Z,48.78
2018-11-07T15:42:44.476Z,50.38
2018-11-07T15:45:25.496Z,48.55
2018-11-07T15:47:56.025Z,47.35
2018-11-07T15:50:45.979Z,49.75
2018-11-07T15:53:30.255Z,48.13
2018-11-07T15:56:02.489Z,49.33
2018-11-07T15:58:34.237Z,48.23
2018-11-07T16:16:53.041Z,50.80
2018-11-07T16:19:27.825Z,49.13
2018-11-07T16:30:11.904Z,50.90
2018-11-07T16:32:51.547Z,50.98
2018-11-07T16:38:08.285Z,50.92
2018-11-07T16:40:48.757Z,48.58
2018-11-07T16:43:33.753Z,49.60
2018-11-07T16:46:16.407Z,51.15
2018-11-07T16:48:47.868Z,50.50
2018-11-07T16:51:29.318Z,48.75
2018-11-07T16:54:00.626Z,50.48
2018-11-07T16:56:32.465Z,48.30
2018-11-07T16:59:14.381Z,47.90
2018-11-07T17:01:51.241Z,52.58
2018-11-07T17:04:23.609Z,49.67
2018-11-07T17:09:41.632Z,50.33
2018-11-07T17:12:37.683Z,50.50
2018-11-07T17:15:16.224Z,50.23
2018-11-07T17:17:54.043Z,52.73
2018-11-07T17:23:21.484Z,50.63
2018-11-07T17:26:00.979Z,51.18
2018-11-07T17:28:33.552Z,52.20
2018-11-07T17:43:57.779Z,46.23
2018-11-07T17:46:28.081Z,50.63
2018-11-07T17:48:57.279Z,63.02
2018-11-07T17:51:26.485Z,59.25
2018-11-07T17:53:55.063Z,53.02
2018-11-07T17:56:23.874Z,51.80
2018-11-07T17:58:52.638Z,51.40
2018-11-07T18:01:22.514Z,50.80
2018-11-07T18:03:51.403Z,54.77
2018-11-07T18:06:20.402Z,52.38
2018-11-07T18:08:48.943Z,52.58
2018-11-07T18:11:17.601Z,52.48
2018-11-07T18:13:46.856Z,50.43
2018-11-07T18:16:15.419Z,52.88
2018-11-07T18:18:44.004Z,51.50
2018-11-07T18:21:13.414Z,51.95
2018-11-07T18:23:42.223Z,52.58
2018-11-07T18:26:11.167Z,49.83
2018-11-07T18:28:40.377Z,51.70
2018-11-07T18:31:09.346Z,51.25
2018-11-07T18:33:38.016Z,53.13
2018-11-07T18:36:07.176Z,49.90
2018-11-07T18:38:37.090Z,50.52
2018-11-07T18:46:54.846Z,52.50
2018-11-07T18:49:27.923Z,52.75
2018-11-07T19:00:53.597Z,52.70
2018-11-07T19:03:27.578Z,50.55
2018-11-07T19:11:28.684Z,52.50
2018-11-07T19:21:58.038Z,51.60
2018-11-07T19:24:28.324Z,48.63
2018-11-07T19:26:58.570Z,53.38
2018-11-07T19:29:28.575Z,51.13
2018-11-07T19:37:44.718Z,51.70
2018-11-07T19:40:15.654Z,51.75
2018-11-07T19:42:46.117Z,53.10
2018-11-07T19:45:16.386Z,56.95
2018-11-07T19:47:46.953Z,52.30
2018-11-07T19:50:18.344Z,52.48
2018-11-07T19:52:50.710Z,50.88
2018-11-07T19:55:20.809Z,51.25
2018-11-07T19:57:56.997Z,54.98
2018-11-07T20:00:26.041Z,52.25
2018-11-07T20:02:57.145Z,52.85
2018-11-07T20:05:26.664Z,54.15
2018-11-07T20:07:56.682Z,51.10
2018-11-07T20:10:26.898Z,54.95
2018-11-07T20:12:55.313Z,54.27
2018-11-07T20:15:25.135Z,53.40
2018-11-07T20:17:54.086Z,53.80
2018-11-07T20:20:22.987Z,51.30
2018-11-07T20:22:52.329Z,55.05
2018-11-07T20:25:21.493Z,51.63
2018-11-07T20:27:50.246Z,51.37
2018-11-07T20:30:19.826Z,60.20
2018-11-07T20:32:51.250Z,54.65
2018-11-07T20:35:21.112Z,55.25
2018-11-07T20:37:49.934Z,52.70
2018-11-07T20:40:20.193Z,52.08
2018-11-07T20:42:48.861Z,56.55
2018-11-07T20:45:18.766Z,55.73
2018-11-07T20:47:48.193Z,53.70
2018-11-07T20:50:19.663Z,53.52
2018-11-07T20:52:49.106Z,56.77
2018-11-07T20:55:18.560Z,54.33
2018-11-07T20:57:57.088Z,56.73
2018-11-07T21:00:25.702Z,58.40
2018-11-07T21:02:54.255Z,55.08
2018-11-07T21:05:23.177Z,55.88
2018-11-07T21:07:51.847Z,55.38
2018-11-07T21:10:21.455Z,56.80
2018-11-07T21:12:50.946Z,55.88
2018-11-07T21:15:20.836Z,56.60
2018-11-07T21:17:49.781Z,56.85
2018-11-07T21:20:18.373Z,56.35
2018-11-07T21:22:46.924Z,55.28
2018-11-07T21:25:15.800Z,55.70
2018-11-07T21:27:44.390Z,56.37
2018-11-07T21:30:13.670Z,53.83
2018-11-07T21:32:42.917Z,56.45
2018-11-07T21:35:11.550Z,55.92
2018-11-07T21:37:40.814Z,60.10
2018-11-07T21:40:10.834Z,59.18
2018-11-07T21:42:39.497Z,55.67
2018-11-07T21:45:12.579Z,58.83
2018-11-07T21:50:37.293Z,59.65
2018-11-07T22:02:29.773Z,58.73
2018-11-07T22:05:00.244Z,60.38
2018-11-07T22:07:30.240Z,58.65
2018-11-07T22:09:59.269Z,57.08
2018-11-07T22:12:27.868Z,63.85
2018-11-07T22:14:56.433Z,59.03
2018-11-07T22:17:25.109Z,71.60
2018-11-07T22:19:53.937Z,64.17
2018-11-07T22:22:24.261Z,60.15
2018-11-07T22:24:54.081Z,60.90
2018-11-07T22:27:23.436Z,63.08
2018-11-07T22:29:52.861Z,57.10
2018-11-07T22:32:21.557Z,60.23
2018-11-07T22:34:55.447Z,61.08
2018-11-07T22:37:37.579Z,59.50
2018-11-07T22:40:10.611Z,63.58
2018-11-07T22:45:31.436Z,58.60
2018-11-07T22:48:02.218Z,58.70
2018-11-07T22:50:31.162Z,58.83
2018-11-07T22:53:00.492Z,57.27
2018-11-07T23:01:22.858Z,59.93
2018-11-07T23:03:52.497Z,59.03
2018-11-07T23:06:21.222Z,59.40
2018-11-07T23:08:50.391Z,61.55
2018-11-07T23:11:19.798Z,62.45
2018-11-07T23:13:49.779Z,61.35
2018-11-07T23:16:18.384Z,60.30
2018-11-07T23:18:47.457Z,62.05
2018-11-07T23:21:17.742Z,59.10
2018-11-07T23:26:25.814Z,60.55
2018-11-07T23:29:03.865Z,59.35
2018-11-07T23:39:53.741Z,62.23
2018-11-07T23:42:29.003Z,61.68
2018-11-07T23:47:31.460Z,64.20
2018-11-07T23:50:00.713Z,64.25
2018-11-07T23:52:35.645Z,63.95
2018-11-07T23:55:04.819Z,66.95
2018-11-07T23:57:33.387Z,64.25
